createdAt,value
2023-03-18T00:01:45.005Z,3.70
2023-03-18T00:04:13.794Z,3.40
2023-03-18T00:06:41.836Z,2.90
2023-03-18T00:09:12.035Z,3.30
2023-03-18T00:11:42.397Z,3.70
2023-03-18T00:14:11.338Z,3.10
2023-03-18T00:16:40.511Z,3.50
2023-03-18T00:19:09.208Z,4.00
2023-03-18T00:21:37.112Z,4.50
2023-03-18T00:24:05.808Z,3.80
2023-03-18T00:26:34.656Z,4.40
2023-03-18T00:29:03.367Z,6.20
2023-03-18T00:31:32.296Z,3.60
2023-03-18T00:34:00.997Z,5.00
2023-03-18T00:36:32.761Z,4.10
2023-03-18T00:39:04.363Z,4.60
2023-03-18T00:41:36.359Z,4.60
2023-03-18T00:44:07.651Z,4.80
2023-03-18T00:46:38.533Z,4.90
2023-03-18T00:49:09.190Z,4.10
2023-03-18T00:51:41.250Z,4.10
2023-03-18T00:54:18.391Z,4.90
2023-03-18T00:56:48.005Z,3.60
2023-03-18T00:59:17.145Z,4.00
2023-03-18T01:01:45.239Z,3.80
2023-03-18T01:04:13.355Z,2.90
2023-03-18T01:06:44.887Z,3.40
2023-03-18T01:09:12.985Z,3.70
2023-03-18T01:11:42.432Z,3.90
2023-03-18T01:14:10.643Z,5.40
2023-03-18T01:16:39.779Z,4.30
2023-03-18T01:19:07.630Z,4.50
2023-03-18T01:21:35.618Z,3.80
2023-03-18T01:24:05.343Z,4.00
2023-03-18T01:26:33.715Z,4.80
2023-03-18T01:29:02.830Z,4.50
2023-03-18T01:31:31.160Z,4.40
2023-03-18T01:34:02.309Z,5.60
2023-03-18T01:36:30.777Z,5.60
2023-03-18T01:39:00.215Z,5.90
2023-03-18T01:41:28.857Z,5.20
2023-03-18T01:43:56.602Z,5.50
2023-03-18T01:46:39.739Z,5.60
2023-03-18T01:49:21.602Z,5.90
2023-03-18T01:52:01.450Z,5.20
2023-03-18T01:54:37.806Z,6.10
2023-03-18T01:57:06.250Z,6.10
2023-03-18T01:59:40.600Z,6.70
2023-03-18T02:02:14.084Z,6.30
2023-03-18T02:04:50.562Z,5.90
2023-03-18T02:07:24.417Z,7.00
2023-03-18T02:09:54.441Z,7.00
2023-03-18T02:12:30.303Z,7.10
2023-03-18T02:15:00.604Z,7.00
2023-03-18T02:17:38.722Z,6.70
2023-03-18T02:21:35.206Z,7.50
2023-03-18T02:24:25.517Z,5.50
2023-03-18T02:27:06.106Z,5.30
2023-03-18T02:29:37.872Z,4.90
2023-03-18T02:34:41.119Z,6.20
2023-03-18T02:37:09.163Z,6.40
2023-03-18T02:39:38.952Z,7.00
2023-03-18T02:42:07.105Z,7.10
2023-03-18T02:44:43.619Z,7.80
2023-03-18T02:47:20.932Z,6.60
2023-03-18T02:49:50.022Z,6.10
2023-03-18T02:52:21.535Z,2.00
2023-03-18T02:54:51.662Z,6.60
2023-03-18T02:57:22.061Z,6.90
2023-03-18T02:59:51.074Z,6.60
2023-03-18T03:02:19.510Z,4.70
2023-03-18T03:04:48.165Z,3.90
2023-03-18T03:07:16.140Z,3.40
2023-03-18T03:09:43.989Z,3.00
2023-03-18T03:12:12.628Z,2.80
2023-03-18T03:14:40.895Z,2.70
2023-03-18T03:17:12.277Z,3.50
2023-03-18T03:19:43.150Z,5.20
2023-03-18T03:22:12.272Z,5.80
2023-03-18T03:24:40.757Z,7.20
2023-03-18T03:27:12.155Z,6.70
2023-03-18T03:29:40.165Z,5.30
2023-03-18T03:32:08.493Z,5.90
2023-03-18T03:34:37.645Z,5.70
2023-03-18T03:37:06.854Z,5.90
2023-03-18T03:39:34.658Z,5.80
2023-03-18T03:42:05.394Z,5.70
2023-03-18T03:44:36.544Z,5.10
2023-03-18T03:47:05.357Z,5.60
2023-03-18T03:49:34.934Z,4.80
2023-03-18T03:52:04.388Z,5.50
2023-03-18T03:54:32.638Z,5.70
2023-03-18T03:57:04.381Z,5.30
2023-03-18T03:59:32.821Z,5.30
2023-03-18T04:02:01.203Z,5.60
2023-03-18T04:06:58.496Z,5.30
2023-03-18T04:09:26.809Z,5.10
2023-03-18T04:11:54.740Z,5.20
2023-03-18T04:14:24.715Z,4.30
2023-03-18T04:16:53.152Z,4.40
2023-03-18T04:19:20.959Z,5.10
2023-03-18T04:21:48.944Z,4.90
2023-03-18T04:24:19.465Z,5.70
2023-03-18T04:26:47.651Z,6.10
2023-03-18T04:29:15.535Z,5.70
2023-03-18T04:31:43.408Z,6.70
2023-03-18T04:34:14.015Z,5.80
2023-03-18T04:36:41.850Z,5.80
2023-03-18T04:39:10.365Z,5.60
2023-03-18T04:41:38.164Z,5.90
2023-03-18T04:44:06.777Z,5.60
2023-03-18T04:46:34.753Z,4.80
2023-03-18T04:49:02.721Z,6.10
2023-03-18T04:51:30.647Z,6.30
2023-03-18T04:54:01.352Z,8.00
2023-03-18T04:56:29.885Z,6.80
2023-03-18T04:58:59.262Z,5.50
2023-03-18T05:01:29.610Z,5.50
2023-03-18T05:04:03.668Z,5.50
2023-03-18T05:09:05.797Z,5.10
2023-03-18T05:11:37.831Z,5.40
2023-03-18T05:14:06.925Z,5.90
2023-03-18T05:16:36.046Z,5.50
2023-03-18T05:19:04.060Z,5.10
2023-03-18T05:21:32.025Z,5.60
2023-03-18T05:24:01.915Z,7.40
2023-03-18T05:26:30.832Z,6.80
2023-03-18T05:28:59.793Z,7.00
2023-03-18T05:31:29.808Z,7.10
2023-03-18T05:34:00.609Z,6.70
2023-03-18T05:36:29.632Z,6.70
2023-03-18T05:39:00.355Z,7.00
2023-03-18T05:41:29.203Z,6.20
2023-03-18T05:43:57.436Z,7.00
2023-03-18T05:46:26.046Z,6.80
2023-03-18T05:48:56.880Z,7.00
2023-03-18T05:51:28.224Z,6.30
2023-03-18T05:53:56.605Z,6.30
2023-03-18T05:56:25.689Z,6.00
2023-03-18T05:58:54.859Z,6.50
2023-03-18T06:01:22.955Z,6.80
2023-03-18T06:03:53.697Z,6.80
2023-03-18T06:06:23.606Z,6.50
2023-03-18T06:08:58.752Z,6.70
2023-03-18T06:11:26.772Z,6.80
2023-03-18T06:13:56.822Z,5.40
2023-03-18T06:16:27.019Z,6.80
2023-03-18T06:18:55.565Z,4.50
2023-03-18T06:21:34.922Z,4.20
2023-03-18T06:24:06.991Z,7.30
2023-03-18T06:26:36.848Z,6.60
2023-03-18T06:29:05.313Z,7.10
2023-03-18T06:31:37.726Z,7.50
2023-03-18T06:34:07.084Z,5.70
2023-03-18T06:36:35.136Z,6.80
2023-03-18T06:39:04.445Z,20.60
2023-03-18T06:41:33.205Z,10.60
2023-03-18T06:44:01.666Z,9.40
2023-03-18T06:46:32.321Z,9.30
2023-03-18T06:49:02.075Z,12.40
2023-03-18T06:51:32.696Z,26.10
2023-03-18T06:54:01.395Z,31.00
2023-03-18T06:56:29.442Z,15.40
2023-03-18T06:58:59.515Z,15.90
2023-03-18T07:01:30.152Z,18.20
2023-03-18T07:03:59.349Z,20.20
2023-03-18T07:06:27.701Z,14.20
2023-03-18T07:09:01.823Z,8.10
2023-03-18T07:11:32.456Z,7.50
2023-03-18T07:14:00.978Z,5.90
2023-03-18T07:16:30.895Z,8.30
2023-03-18T07:18:59.445Z,7.40
2023-03-18T07:21:29.986Z,7.30
2023-03-18T07:23:58.294Z,8.10
2023-03-18T07:26:26.696Z,7.10
2023-03-18T07:28:54.430Z,6.90
2023-03-18T07:31:26.237Z,7.40
2023-03-18T07:33:58.083Z,6.90
2023-03-18T07:36:28.210Z,8.30
2023-03-18T07:38:57.980Z,7.20
2023-03-18T07:41:30.125Z,5.80
2023-03-18T07:43:58.572Z,7.00
2023-03-18T07:46:27.778Z,6.20
2023-03-18T07:48:56.615Z,5.90
2023-03-18T07:51:24.409Z,7.20
2023-03-18T07:53:55.968Z,18.70
2023-03-18T07:56:31.016Z,14.00
2023-03-18T07:58:59.568Z,23.60
2023-03-18T08:01:28.207Z,11.60
2023-03-18T08:03:56.064Z,35.20
2023-03-18T08:06:26.473Z,12.90
2023-03-18T08:08:55.933Z,11.60
2023-03-18T08:11:26.167Z,7.40
2023-03-18T08:13:53.995Z,10.40
2023-03-18T08:16:23.513Z,7.50
2023-03-18T08:18:51.746Z,8.90
2023-03-18T08:21:19.785Z,7.90
2023-03-18T08:23:50.978Z,8.40
2023-03-18T08:26:19.826Z,7.70
2023-03-18T08:28:47.748Z,9.50
2023-03-18T08:31:16.250Z,8.80
2023-03-18T08:33:44.814Z,8.10
2023-03-18T08:36:12.997Z,7.80
2023-03-18T08:38:41.255Z,8.30
2023-03-18T08:41:10.379Z,6.90
2023-03-18T08:43:39.183Z,8.20
2023-03-18T08:46:08.043Z,8.20
2023-03-18T08:48:36.290Z,8.60
2023-03-18T08:51:08.603Z,7.00
2023-03-18T08:53:38.112Z,8.60
2023-03-18T08:56:07.858Z,8.00
2023-03-18T08:58:36.713Z,7.80
2023-03-18T09:01:09.523Z,6.20
2023-03-18T09:03:38.750Z,7.00
2023-03-18T09:06:07.632Z,7.20
2023-03-18T09:08:36.010Z,7.50
2023-03-18T09:11:04.184Z,7.50
2023-03-18T09:13:32.078Z,8.50
2023-03-18T09:16:00.342Z,7.90
2023-03-18T09:18:32.220Z,7.80
2023-03-18T09:21:00.099Z,8.50
2023-03-18T09:23:28.794Z,8.30
2023-03-18T09:26:01.001Z,7.40
2023-03-18T09:28:33.729Z,8.10
2023-03-18T09:31:02.073Z,6.10
2023-03-18T09:33:30.100Z,8.80
2023-03-18T09:35:58.856Z,10.10
2023-03-18T09:38:27.805Z,10.00
2023-03-18T09:41:11.019Z,8.40
2023-03-18T09:44:10.524Z,7.60
2023-03-18T09:46:52.231Z,9.30
2023-03-18T09:50:17.753Z,9.40
2023-03-18T09:52:56.249Z,9.40
2023-03-18T09:55:36.898Z,8.60
2023-03-18T09:58:18.178Z,6.80
2023-03-18T10:00:47.812Z,7.80
2023-03-18T10:03:43.820Z,5.30
2023-03-18T10:06:19.830Z,4.90
2023-03-18T10:09:14.265Z,5.80
2023-03-18T10:11:47.508Z,6.10
2023-03-18T10:14:28.252Z,4.80
2023-03-18T10:17:34.819Z,6.10
2023-03-18T10:20:15.500Z,5.20
2023-03-18T10:23:06.263Z,5.70
2023-03-18T10:25:46.808Z,4.70
2023-03-18T10:28:48.395Z,4.90
2023-03-18T10:32:00.503Z,3.80
2023-03-18T10:34:53.090Z,3.30
2023-03-18T10:37:54.217Z,3.60
2023-03-18T10:40:27.809Z,3.10
2023-03-18T10:43:00.136Z,3.20
2023-03-18T10:45:35.993Z,3.50
2023-03-18T10:48:18.669Z,3.20
2023-03-18T10:51:11.847Z,4.80
2023-03-18T10:53:54.904Z,3.80
2023-03-18T10:56:22.820Z,4.00
2023-03-18T10:58:52.774Z,3.70
2023-03-18T11:01:26.069Z,3.30
2023-03-18T11:04:06.701Z,3.90
2023-03-18T11:06:45.492Z,4.30
2023-03-18T11:09:22.591Z,3.90
2023-03-18T11:11:58.511Z,4.20
2023-03-18T11:14:32.421Z,3.50
2023-03-18T11:17:05.971Z,2.70
2023-03-18T11:19:39.648Z,3.30
2023-03-18T11:22:11.071Z,3.30
2023-03-18T11:24:42.541Z,2.20
2023-03-18T11:27:14.617Z,2.60
2023-03-18T11:29:56.749Z,2.20
2023-03-18T11:32:32.346Z,2.60
2023-03-18T11:35:05.191Z,2.70
2023-03-18T11:37:41.345Z,2.80
2023-03-18T11:40:14.770Z,3.00
2023-03-18T11:42:45.169Z,3.40
2023-03-18T11:45:44.379Z,2.60
2023-03-18T11:48:39.416Z,2.50
2023-03-18T11:51:34.763Z,2.00
2023-03-18T11:54:16.672Z,2.60
2023-03-18T11:56:56.155Z,2.20
2023-03-18T12:00:10.445Z,2.40
2023-03-18T12:03:09.741Z,1.90
2023-03-18T12:06:22.937Z,2.00
2023-03-18T12:09:08.194Z,1.70
2023-03-18T12:11:57.873Z,1.80
2023-03-18T12:14:45.940Z,1.70
2023-03-18T12:17:28.672Z,1.90
2023-03-18T12:20:27.550Z,1.60
2023-03-18T12:23:33.896Z,1.60
2023-03-18T12:26:18.055Z,1.80
2023-03-18T12:29:36.198Z,1.80
2023-03-18T12:32:33.795Z,1.60
2023-03-18T12:35:23.433Z,1.20
2023-03-18T12:38:27.390Z,1.10
2023-03-18T12:41:37.513Z,1.20
2023-03-18T12:44:43.699Z,1.40
2023-03-18T12:47:30.168Z,1.20
2023-03-18T12:50:13.160Z,0.80
2023-03-18T12:53:08.767Z,1.10
2023-03-18T12:55:52.375Z,0.70
2023-03-18T12:58:30.774Z,1.00
2023-03-18T13:01:20.153Z,0.60
2023-03-18T13:04:14.738Z,0.80
2023-03-18T13:06:49.468Z,0.80
2023-03-18T13:09:36.733Z,0.70
2023-03-18T13:12:13.433Z,0.80
2023-03-18T13:15:24.772Z,0.60
2023-03-18T13:17:59.971Z,0.80
2023-03-18T13:20:34.721Z,0.60
2023-03-18T13:23:18.327Z,0.60
2023-03-18T13:26:18.489Z,0.80
2023-03-18T13:29:32.894Z,1.10
2023-03-18T13:32:32.880Z,1.10
2023-03-18T13:35:33.994Z,0.90
2023-03-18T13:38:19.880Z,0.80
2023-03-18T13:41:33.732Z,0.70
2023-03-18T13:44:16.594Z,0.70
2023-03-18T13:46:59.180Z,1.00
2023-03-18T13:49:32.611Z,1.20
2023-03-18T13:52:05.381Z,0.90
2023-03-18T13:54:42.282Z,0.70
2023-03-18T13:57:48.254Z,0.70
2023-03-18T14:00:31.220Z,0.70
2023-03-18T14:03:26.896Z,0.60
2023-03-18T14:06:08.800Z,0.50
2023-03-18T14:08:48.882Z,0.60
2023-03-18T14:11:17.048Z,0.60
2023-03-18T14:14:06.272Z,0.50
2023-03-18T14:16:34.266Z,0.70
2023-03-18T14:19:19.244Z,0.50
2023-03-18T14:21:53.761Z,0.70
2023-03-18T14:24:26.262Z,0.70
2023-03-18T14:27:00.125Z,0.70
2023-03-18T14:29:41.166Z,0.80
2023-03-18T14:32:34.684Z,0.80
2023-03-18T14:35:18.072Z,0.70
2023-03-18T14:38:06.762Z,0.70
2023-03-18T14:40:45.416Z,0.70
2023-03-18T14:43:29.706Z,0.60
2023-03-18T14:46:03.443Z,0.60
2023-03-18T14:48:34.587Z,0.90
2023-03-18T14:51:19.211Z,0.80
2023-03-18T14:53:55.374Z,0.70
2023-03-18T14:56:31.591Z,0.70
2023-03-18T14:59:01.550Z,0.90
2023-03-18T15:01:39.767Z,0.70
2023-03-18T15:04:27.238Z,0.90
2023-03-18T15:07:01.437Z,0.80
2023-03-18T15:09:36.785Z,1.00
2023-03-18T15:12:26.917Z,0.90
2023-03-18T15:14:56.073Z,0.90
2023-03-18T15:17:29.560Z,1.00
2023-03-18T15:20:05.681Z,0.80
2023-03-18T15:22:35.827Z,1.00
2023-03-18T15:25:08.515Z,0.80
2023-03-18T15:27:38.589Z,0.80
2023-03-18T15:30:25.747Z,1.30
2023-03-18T15:33:22.168Z,0.90
2023-03-18T15:36:08.666Z,0.80
2023-03-18T15:38:50.581Z,0.80
2023-03-18T15:41:21.979Z,1.00
2023-03-18T15:43:54.578Z,0.90
2023-03-18T15:46:32.682Z,1.20
2023-03-18T15:49:06.248Z,1.60
2023-03-18T15:51:48.178Z,2.20
2023-03-18T15:54:34.725Z,2.70
2023-03-18T15:57:16.415Z,3.10
2023-03-18T15:59:47.740Z,2.50
2023-03-18T16:02:18.640Z,2.30
2023-03-18T16:04:48.616Z,2.20
2023-03-18T16:07:22.739Z,2.20
2023-03-18T16:09:53.699Z,2.00
2023-03-18T16:12:25.159Z,3.20
2023-03-18T16:14:56.412Z,3.20
2023-03-18T16:17:24.809Z,2.10
2023-03-18T16:19:59.714Z,2.00
2023-03-18T16:22:29.087Z,1.90
2023-03-18T16:24:57.459Z,2.00
2023-03-18T16:27:42.568Z,2.10
2023-03-18T16:30:29.492Z,2.00
2023-03-18T16:33:00.369Z,1.50
2023-03-18T16:35:34.576Z,1.30
2023-03-18T16:38:05.571Z,1.80
2023-03-18T16:40:34.082Z,1.60
2023-03-18T16:43:04.021Z,1.90
2023-03-18T16:45:35.594Z,2.70
2023-03-18T16:48:08.580Z,2.60
2023-03-18T16:50:39.209Z,2.60
2023-03-18T16:53:29.183Z,3.10
2023-03-18T16:56:16.553Z,2.50
2023-03-18T16:58:45.136Z,3.00
2023-03-18T17:01:19.609Z,3.10
2023-03-18T17:03:48.733Z,3.10
2023-03-18T17:06:17.665Z,3.90
2023-03-18T17:08:47.278Z,3.40
2023-03-18T17:11:18.883Z,2.90
2023-03-18T17:13:48.825Z,2.00
2023-03-18T17:16:20.424Z,1.40
2023-03-18T17:18:48.737Z,1.00
2023-03-18T17:21:20.113Z,1.20
2023-03-18T17:23:49.078Z,1.00
2023-03-18T17:26:29.907Z,1.10
2023-03-18T17:29:00.174Z,1.10
2023-03-18T17:31:30.584Z,1.30
2023-03-18T17:34:00.104Z,1.90
2023-03-18T17:36:27.882Z,1.60
2023-03-18T17:39:00.023Z,2.20
2023-03-18T17:41:30.423Z,3.10
2023-03-18T17:44:01.551Z,3.10
2023-03-18T17:46:31.204Z,1.90
2023-03-18T17:49:01.117Z,1.60
2023-03-18T17:51:31.430Z,1.60
2023-03-18T17:54:02.505Z,2.00
2023-03-18T17:56:32.681Z,2.20
2023-03-18T17:59:04.798Z,2.40
2023-03-18T18:01:35.378Z,2.40
2023-03-18T18:04:04.706Z,2.00
2023-03-18T18:06:34.050Z,2.80
2023-03-18T18:09:02.716Z,2.50
2023-03-18T18:11:39.742Z,2.40
2023-03-18T18:14:15.270Z,2.60
2023-03-18T18:16:43.781Z,2.70
2023-03-18T18:19:11.993Z,2.70
2023-03-18T18:21:42.111Z,2.80
2023-03-18T18:24:26.163Z,4.50
2023-03-18T18:26:56.514Z,4.10
2023-03-18T18:29:36.349Z,2.20
2023-03-18T18:32:08.192Z,1.70
2023-03-18T18:34:37.467Z,1.50
2023-03-18T18:37:05.736Z,2.50
2023-03-18T18:39:39.942Z,2.10
2023-03-18T18:42:08.501Z,3.50
2023-03-18T18:44:37.881Z,7.80
2023-03-18T18:47:20.178Z,6.60
2023-03-18T18:49:48.850Z,6.40
2023-03-18T18:52:18.096Z,3.80
2023-03-18T18:54:46.311Z,3.20
2023-03-18T18:57:29.755Z,2.90
2023-03-18T18:59:58.997Z,3.00
2023-03-18T19:02:38.039Z,2.90
2023-03-18T19:05:08.285Z,3.20
2023-03-18T19:07:40.687Z,3.70
2023-03-18T19:10:17.901Z,4.90
2023-03-18T19:12:46.398Z,4.80
2023-03-18T19:15:15.723Z,5.10
2023-03-18T19:17:43.970Z,5.30
2023-03-18T19:20:29.821Z,5.00
2023-03-18T19:23:03.357Z,4.70
2023-03-18T19:25:31.648Z,4.50
2023-03-18T19:28:00.413Z,4.20
2023-03-18T19:30:28.507Z,3.10
2023-03-18T19:33:00.962Z,4.20
2023-03-18T19:35:29.200Z,5.30
2023-03-18T19:38:00.149Z,7.60
2023-03-18T19:40:33.593Z,6.40
2023-03-18T19:43:21.673Z,5.90
2023-03-18T19:45:51.852Z,5.20
2023-03-18T19:48:24.156Z,4.80
2023-03-18T19:50:52.429Z,5.60
2023-03-18T19:53:20.383Z,5.20
2023-03-18T19:55:51.820Z,6.10
2023-03-18T19:58:27.961Z,4.70
2023-03-18T20:01:01.952Z,4.60
2023-03-18T20:03:31.322Z,4.80
2023-03-18T20:06:01.930Z,6.90
2023-03-18T20:08:29.827Z,6.50
2023-03-18T20:11:01.934Z,5.30
2023-03-18T20:13:30.042Z,4.40
2023-03-18T20:16:00.408Z,4.70
2023-03-18T20:18:28.341Z,4.30
2023-03-18T20:20:56.843Z,5.10
2023-03-18T20:23:30.343Z,9.20
2023-03-18T20:26:00.223Z,12.60
2023-03-18T20:28:29.203Z,14.70
2023-03-18T20:30:57.067Z,10.30
2023-03-18T20:33:30.374Z,5.20
2023-03-18T20:36:01.052Z,3.70
2023-03-18T20:38:35.905Z,3.10
2023-03-18T20:41:06.252Z,3.80
2023-03-18T20:43:34.867Z,4.70
2023-03-18T20:46:04.410Z,5.80
2023-03-18T20:48:34.072Z,7.50
2023-03-18T20:51:05.684Z,10.40
2023-03-18T20:53:34.849Z,14.10
2023-03-18T20:56:03.229Z,12.60
2023-03-18T20:58:31.340Z,15.00
2023-03-18T21:01:00.421Z,12.70
2023-03-18T21:03:33.132Z,11.40
2023-03-18T21:06:06.624Z,11.20
2023-03-18T21:08:36.329Z,9.60
2023-03-18T21:11:05.748Z,7.40
2023-03-18T21:13:43.834Z,6.50
2023-03-18T21:16:16.884Z,6.50
2023-03-18T21:18:48.651Z,6.90
2023-03-18T21:21:37.146Z,9.60
2023-03-18T21:24:27.681Z,9.70
2023-03-18T21:27:04.145Z,10.70
2023-03-18T21:29:33.676Z,7.20
2023-03-18T21:32:04.243Z,7.00
2023-03-18T21:34:33.143Z,7.80
2023-03-18T21:37:00.879Z,9.10
2023-03-18T21:39:29.441Z,9.40
2023-03-18T21:42:01.695Z,8.60
2023-03-18T21:44:30.143Z,8.80
2023-03-18T21:46:57.923Z,7.00
2023-03-18T21:49:28.030Z,6.80
2023-03-18T21:51:56.253Z,6.50
2023-03-18T21:54:26.204Z,4.90
2023-03-18T21:56:53.993Z,5.60
2023-03-18T21:59:21.850Z,6.50
2023-03-18T22:01:52.056Z,6.40
2023-03-18T22:04:20.100Z,7.50
2023-03-18T22:06:48.260Z,6.90
2023-03-18T22:09:18.532Z,8.30
2023-03-18T22:11:46.811Z,8.90
2023-03-18T22:14:15.830Z,8.80
2023-03-18T22:16:43.998Z,9.90
2023-03-18T22:19:11.881Z,8.70
2023-03-18T22:21:39.687Z,7.50
2023-03-18T22:24:14.456Z,7.90
2023-03-18T22:26:42.478Z,6.40
2023-03-18T22:29:10.984Z,7.10
2023-03-18T22:31:41.669Z,5.70
2023-03-18T22:34:42.193Z,5.50
2023-03-18T22:37:21.382Z,6.00
2023-03-18T22:39:51.290Z,5.90
2023-03-18T22:42:23.583Z,6.70
2023-03-18T22:44:52.910Z,6.40
2023-03-18T22:47:26.346Z,6.40
2023-03-18T22:49:56.782Z,5.40
2023-03-18T22:52:30.649Z,6.80
2023-03-18T22:55:14.536Z,4.80
2023-03-18T22:57:42.454Z,5.90
2023-03-18T23:01:00.255Z,6.70
2023-03-18T23:03:40.539Z,5.70
2023-03-18T23:06:19.717Z,6.30
2023-03-18T23:08:48.048Z,5.50
2023-03-18T23:11:17.681Z,5.50
2023-03-18T23:13:52.310Z,5.30
2023-03-18T23:16:23.846Z,6.40
2023-03-18T23:18:52.557Z,6.00
2023-03-18T23:21:25.583Z,6.80
2023-03-18T23:23:56.012Z,6.90
2023-03-18T23:26:24.054Z,6.80
2023-03-18T23:28:53.064Z,6.40
2023-03-18T23:31:21.188Z,4.80
2023-03-18T23:33:49.131Z,5.40
2023-03-18T23:36:17.548Z,5.80
2023-03-18T23:38:46.635Z,5.10
2023-03-18T23:41:14.968Z,5.90
2023-03-18T23:43:42.979Z,5.10
2023-03-18T23:46:11.162Z,7.20
2023-03-18T23:48:39.809Z,5.50
2023-03-18T23:51:08.682Z,5.70
2023-03-18T23:53:36.495Z,5.60
2023-03-18T23:56:06.902Z,6.50
2023-03-18T23:58:36.116Z,6.00
